Time;durP1;ratioP1;P1;durP2;ratioP2;P2;SDS_P1;SDS_P2;PMS_P1;PMS_P2;Temp;Humidity;BMP_temperature;BMP_pressure;BME280_temperature;BME280_humidity;BME280_pressure;Samples;Min_cycle;Max_cycle;Signal;HPM_P1;HPM_P2
2021/12/10 00:00:42;;;;;;;2.30;1.23;;;17.30;43.00;;;;;;5086960;28;48916;-25
2021/12/10 00:03:12;;;;;;;1.17;1.08;;;17.30;43.00;;;;;;5087164;28;46830;-17
2021/12/10 00:05:41;;;;;;;1.52;1.15;;;17.30;43.00;;;;;;5087147;28;46921;-25
2021/12/10 00:08:08;;;;;;;1.20;1.10;;;17.20;43.00;;;;;;5086972;28;47261;-26
2021/12/10 00:10:37;;;;;;;1.13;1.00;;;17.20;43.00;;;;;;5086997;28;47906;-26
2021/12/10 00:13:04;;;;;;;2.65;1.33;;;17.20;43.00;;;;;;5086688;28;46960;-25
2021/12/10 00:15:31;;;;;;;1.63;1.10;;;17.20;43.10;;;;;;5086078;28;46799;-26
2021/12/10 00:17:58;;;;;;;1.92;1.05;;;17.10;43.10;;;;;;5087310;28;46917;-26
2021/12/10 00:20:29;;;;;;;2.40;1.20;;;17.10;43.00;;;;;;5086321;28;48769;-17
2021/12/10 00:22:58;;;;;;;1.63;1.13;;;17.10;43.00;;;;;;5086564;28;46921;-17
2021/12/10 00:25:26;;;;;;;1.23;1.10;;;17.10;43.00;;;;;;5086606;28;46905;-17
2021/12/10 00:27:53;;;;;;;1.23;1.13;;;17.10;43.00;;;;;;5086856;28;47080;-17
2021/12/10 00:30:24;;;;;;;1.52;1.02;;;17.00;43.00;;;;;;5086676;28;46800;-17
2021/12/10 00:32:58;;;;;;;1.42;1.00;;;17.00;43.00;;;;;;5086746;28;46876;-17
2021/12/10 00:35:27;;;;;;;0.80;0.80;;;16.90;43.00;;;;;;5085872;28;46885;-17
2021/12/10 00:37:54;;;;;;;1.15;0.93;;;16.90;43.10;;;;;;5086872;28;46855;-17
2021/12/10 00:40:21;;;;;;;2.08;0.90;;;16.90;43.10;;;;;;5086042;28;47342;-17
2021/12/10 00:42:48;;;;;;;2.20;0.95;;;16.90;43.00;;;;;;5086164;28;46783;-16
2021/12/10 00:45:16;;;;;;;1.08;0.98;;;16.80;42.90;;;;;;5086485;28;47028;-26
2021/12/10 00:47:43;;;;;;;1.95;0.90;;;16.80;43.00;;;;;;5086898;28;46966;-25
2021/12/10 00:50:12;;;;;;;1.10;0.90;;;16.80;43.10;;;;;;5085832;28;49093;-26
2021/12/10 00:52:42;;;;;;;0.88;0.80;;;16.80;43.00;;;;;;5086184;28;47280;-25
2021/12/10 00:55:09;;;;;;;1.40;0.93;;;16.80;43.70;;;;;;5085712;28;46897;-25
2021/12/10 00:57:36;;;;;;;1.02;0.90;;;16.80;43.00;;;;;;5086638;28;47270;-25
2021/12/10 01:00:04;;;;;;;1.55;1.15;;;16.70;43.10;;;;;;5086147;28;47091;-26
2021/12/10 01:02:31;;;;;;;1.30;0.98;;;16.70;43.00;;;;;;5086203;28;47021;-25
2021/12/10 01:04:59;;;;;;;2.40;0.98;;;16.70;43.00;;;;;;5085710;27;46873;-26
2021/12/10 01:07:27;;;;;;;2.80;1.20;;;16.70;43.00;;;;;;5086526;28;46977;-25
2021/12/10 01:09:56;;;;;;;2.67;1.00;;;16.60;43.00;;;;;;5085842;28;48153;-26
2021/12/10 01:12:25;;;;;;;1.48;1.00;;;16.60;43.00;;;;;;5086075;28;46900;-26
2021/12/10 01:15:04;;;;;;;1.23;1.00;;;16.60;43.00;;;;;;5086094;28;46827;-26
2021/12/10 01:26:12;;;;;;;1.90;0.93;;;16.50;42.90;;;;;;5021490;28;46996;-24
2021/12/10 01:28:40;;;;;;;1.45;1.00;;;16.50;43.00;;;;;;5060932;27;47062;-23
2021/12/10 01:31:06;;;;;;;2.75;1.23;;;16.40;42.90;;;;;;5085600;27;49203;-15
2021/12/10 01:33:33;;;;;;;1.05;0.80;;;16.40;43.00;;;;;;5085804;28;46896;-23
2021/12/10 01:36:06;;;;;;;3.70;0.98;;;16.40;43.00;;;;;;5085643;28;46854;-24
2021/12/10 01:38:33;;;;;;;1.67;0.88;;;16.40;43.10;;;;;;5085919;28;46964;-24
2021/12/10 01:41:00;;;;;;;1.45;0.68;;;16.40;43.10;;;;;;5085504;28;47927;-24
2021/12/10 01:43:34;;;;;;;0.93;0.80;;;16.40;43.10;;;;;;5085521;28;46889;-24
2021/12/10 01:46:06;;;;;;;1.00;0.90;;;16.30;43.00;;;;;;5085051;28;46997;-23
2021/12/10 01:48:35;;;;;;;0.93;0.90;;;16.30;43.10;;;;;;5085584;28;46905;-24
2021/12/10 01:51:02;;;;;;;1.20;0.80;;;16.30;43.10;;;;;;5085581;28;48030;-24
2021/12/10 01:53:30;;;;;;;2.00;1.00;;;16.30;43.20;;;;;;5085169;28;46806;-23
2021/12/10 01:56:06;;;;;;;0.77;0.70;;;16.30;43.10;;;;;;5085451;28;46902;-23
2021/12/10 01:58:34;;;;;;;1.55;0.98;;;16.30;43.30;;;;;;5085536;28;46850;-23
2021/12/10 02:01:02;;;;;;;2.15;1.05;;;16.20;43.10;;;;;;5085070;27;47822;-24
2021/12/10 02:03:29;;;;;;;0.77;0.77;;;16.20;43.10;;;;;;5085467;28;46748;-25
2021/12/10 02:05:55;;;;;;;0.77;0.70;;;16.20;43.70;;;;;;5084928;28;46881;-24
2021/12/10 02:08:22;;;;;;;0.80;0.80;;;16.20;43.20;;;;;;5085352;28;46915;-25
2021/12/10 02:10:49;;;;;;;1.00;0.80;;;16.20;43.10;;;;;;5084733;28;46894;-25
2021/12/10 02:13:16;;;;;;;1.77;0.80;;;16.20;43.10;;;;;;5085408;28;46994;-25
2021/12/10 02:15:44;;;;;;;1.77;0.88;;;16.20;42.90;;;;;;5084758;28;46763;-25
2021/12/10 02:18:12;;;;;;;1.35;0.80;;;16.10;43.00;;;;;;5085443;28;47137;-24
2021/12/10 02:20:49;;;;;;;0.70;0.70;;;16.10;42.90;;;;;;5084948;28;47828;-25
2021/12/10 02:23:16;;;;;;;1.70;1.00;;;16.10;43.00;;;;;;5085449;28;46965;-16
2021/12/10 02:25:42;;;;;;;0.82;0.70;;;16.10;42.90;;;;;;5084732;28;46841;-16
2021/12/10 02:28:10;;;;;;;0.77;0.77;;;16.10;42.80;;;;;;5085352;28;47264;-15
2021/12/10 02:30:37;;;;;;;1.13;0.77;;;16.10;42.90;;;;;;5084916;28;46989;-17
2021/12/10 02:33:03;;;;;;;1.10;0.73;;;16.10;42.90;;;;;;5084910;28;46818;-16
2021/12/10 02:35:31;;;;;;;1.40;0.73;;;16.10;43.00;;;;;;5084718;28;46875;-15
2021/12/10 02:37:59;;;;;;;1.70;0.70;;;16.10;42.80;;;;;;5087268;27;47092;-16
2021/12/10 02:40:26;;;;;;;0.60;0.60;;;16.00;43.00;;;;;;5088250;28;47947;-15
2021/12/10 02:42:53;;;;;;;1.50;0.90;;;16.00;43.00;;;;;;5088485;28;47429;-16
2021/12/10 02:45:20;;;;;;;1.30;0.70;;;16.00;43.00;;;;;;5088273;28;46934;-16
2021/12/10 02:47:47;;;;;;;0.80;0.50;;;16.00;42.90;;;;;;5088243;28;46915;-15
2021/12/10 02:50:15;;;;;;;0.73;0.70;;;16.00;42.70;;;;;;5087865;28;48249;-15
2021/12/10 02:52:42;;;;;;;2.08;0.70;;;16.00;42.90;;;;;;5088115;28;47282;-16
2021/12/10 02:55:14;;;;;;;1.67;1.05;;;16.00;42.90;;;;;;5087870;28;46902;-24
2021/12/10 02:57:40;;;;;;;0.63;0.63;;;16.00;42.70;;;;;;5088362;28;46824;-25
2021/12/10 03:00:08;;;;;;;1.95;0.93;;;15.90;42.80;;;;;;5087992;28;49087;-25
2021/12/10 03:02:35;;;;;;;0.63;0.55;;;15.90;42.90;;;;;;5088292;27;46841;-25
2021/12/10 03:05:01;;;;;;;1.60;0.80;;;15.90;42.70;;;;;;5088280;28;46917;-16
2021/12/10 03:07:30;;;;;;;1.67;0.57;;;15.90;42.90;;;;;;5088046;28;47289;-17
2021/12/10 03:09:58;;;;;;;0.60;0.60;;;15.90;42.80;;;;;;5087582;28;47696;-16
2021/12/10 03:12:26;;;;;;;1.60;0.70;;;15.90;42.80;;;;;;5088102;28;47097;-24
2021/12/10 03:14:53;;;;;;;0.65;0.65;;;15.90;42.90;;;;;;5088199;28;46739;-25
2021/12/10 03:17:21;;;;;;;0.80;0.52;;;15.90;42.90;;;;;;5088121;28;47158;-25
2021/12/10 03:19:48;;;;;;;1.65;0.68;;;15.90;42.80;;;;;;5087755;28;48190;-25
2021/12/10 03:22:15;;;;;;;1.55;0.68;;;15.90;42.60;;;;;;5087527;28;47207;-25
2021/12/10 03:24:42;;;;;;;1.13;0.70;;;15.90;42.60;;;;;;5087462;28;46884;-25
2021/12/10 03:27:10;;;;;;;1.05;0.52;;;15.90;42.70;;;;;;5088119;28;46869;-25
2021/12/10 03:29:41;;;;;;;0.52;0.52;;;15.80;42.70;;;;;;5087569;28;47094;-16
2021/12/10 03:32:10;;;;;;;0.98;0.70;;;15.80;42.60;;;;;;5087528;28;47449;-25
2021/12/10 03:34:36;;;;;;;1.27;0.63;;;15.80;42.70;;;;;;5087362;28;46991;-25
2021/12/10 03:37:04;;;;;;;0.77;0.57;;;15.80;42.80;;;;;;5087863;28;47218;-17
2021/12/10 03:39:30;;;;;;;1.13;1.00;;;15.80;42.60;;;;;;5087248;27;48774;-16
2021/12/10 03:41:58;;;;;;;1.83;0.70;;;15.80;42.70;;;;;;5087407;28;46847;-18
2021/12/10 03:44:24;;;;;;;0.88;0.55;;;15.80;42.70;;;;;;5087478;28;46914;-25
2021/12/10 03:46:53;;;;;;;0.93;0.65;;;15.80;42.50;;;;;;5087535;28;47290;-16
2021/12/10 03:49:19;;;;;;;0.93;0.50;;;15.80;42.70;;;;;;5085922;28;46957;-16
2021/12/10 03:51:46;;;;;;;0.60;0.60;;;15.80;42.90;;;;;;5087525;28;47243;-25
2021/12/10 03:54:16;;;;;;;1.25;0.70;;;15.70;42.80;;;;;;5087381;28;46795;-17
2021/12/10 03:56:42;;;;;;;0.93;0.68;;;15.70;42.80;;;;;;5087147;27;47289;-16
2021/12/10 03:59:12;;;;;;;0.63;0.47;;;15.70;42.70;;;;;;5087194;28;47969;-17
2021/12/10 04:01:41;;;;;;;0.70;0.70;;;15.70;42.80;;;;;;5086996;27;47312;-25
2021/12/10 04:04:11;;;;;;;0.82;0.70;;;15.70;42.80;;;;;;5087277;28;46974;-16
2021/12/10 04:06:38;;;;;;;0.55;0.55;;;15.70;42.80;;;;;;5087303;27;46900;-17
2021/12/10 04:09:04;;;;;;;0.80;0.60;;;15.70;42.70;;;;;;5086877;28;49037;-25
2021/12/10 04:11:31;;;;;;;0.63;0.50;;;15.70;42.80;;;;;;5086995;28;47271;-25
2021/12/10 04:13:58;;;;;;;4.07;0.60;;;15.70;42.90;;;;;;5087070;28;46975;-17
2021/12/10 04:16:26;;;;;;;0.57;0.50;;;15.70;42.80;;;;;;5086705;28;47127;-16
2021/12/10 04:18:54;;;;;;;1.98;0.65;;;15.70;42.70;;;;;;5086618;28;47959;-16
2021/12/10 04:21:22;;;;;;;0.50;0.50;;;15.70;42.90;;;;;;5086411;28;46842;-25
2021/12/10 04:23:49;;;;;;;0.60;0.40;;;15.70;42.80;;;;;;5087007;28;46804;-25
2021/12/10 04:26:19;;;;;;;1.10;0.60;;;15.70;42.80;;;;;;5087090;28;46954;-15
2021/12/10 04:28:46;;;;;;;1.27;0.57;;;15.60;43.40;;;;;;5086688;28;48107;-16
2021/12/10 04:31:12;;;;;;;0.68;0.68;;;15.60;42.70;;;;;;5086638;28;47146;-16
2021/12/10 04:33:39;;;;;;;0.60;0.40;;;15.60;42.80;;;;;;5086838;28;46835;-16
2021/12/10 04:36:06;;;;;;;0.88;0.60;;;15.60;42.70;;;;;;5086440;28;46892;-16
2021/12/10 04:38:35;;;;;;;0.50;0.50;;;15.60;42.70;;;;;;5086558;28;48907;-25
2021/12/10 04:41:05;;;;;;;0.40;0.40;;;15.60;42.80;;;;;;5086494;28;47457;-25
2021/12/10 04:43:33;;;;;;;1.50;0.57;;;15.60;42.80;;;;;;5086375;28;46881;-25
2021/12/10 04:45:59;;;;;;;0.60;0.50;;;15.60;42.60;;;;;;5086305;28;46864;-25
2021/12/10 04:48:29;;;;;;;0.85;0.47;;;15.60;42.70;;;;;;5086448;28;47867;-25
2021/12/10 04:50:56;;;;;;;0.55;0.47;;;15.60;42.70;;;;;;5086225;28;47457;-16
2021/12/10 04:53:22;;;;;;;0.50;0.50;;;15.60;42.60;;;;;;5086659;27;47085;-25
2021/12/10 04:55:50;;;;;;;0.43;0.43;;;15.60;42.60;;;;;;5085490;28;47140;-16
2021/12/10 04:58:17;;;;;;;0.88;0.52;;;15.60;42.50;;;;;;5085923;28;46927;-25
2021/12/10 05:00:46;;;;;;;0.70;0.50;;;15.60;42.50;;;;;;5085738;27;47577;-16
2021/12/10 05:03:12;;;;;;;0.75;0.45;;;15.60;42.50;;;;;;5086337;27;46887;-16
2021/12/10 05:05:39;;;;;;;0.68;0.40;;;15.60;42.50;;;;;;5086104;28;47111;-24
2021/12/10 05:08:07;;;;;;;0.65;0.52;;;15.60;43.10;;;;;;5086151;28;48024;-25
2021/12/10 05:10:33;;;;;;;0.50;0.50;;;15.50;42.40;;;;;;5085681;28;46833;-25
2021/12/10 05:13:01;;;;;;;0.80;0.70;;;15.50;42.50;;;;;;5085882;28;47041;-25
2021/12/10 05:15:30;;;;;;;1.55;0.52;;;15.60;43.10;;;;;;5085900;28;46898;-16
2021/12/10 05:17:56;;;;;;;0.90;0.50;;;15.50;42.40;;;;;;5085737;28;47936;-16
2021/12/10 05:20:25;;;;;;;0.80;0.50;;;15.50;42.30;;;;;;5085968;28;47159;-16
2021/12/10 05:22:51;;;;;;;0.50;0.50;;;15.50;42.30;;;;;;5086025;28;47005;-16
2021/12/10 05:25:18;;;;;;;1.30;0.50;;;15.50;42.20;;;;;;5085750;28;47278;-25
2021/12/10 05:27:45;;;;;;;3.45;0.80;;;15.50;42.20;;;;;;5085710;28;47944;-25
2021/12/10 05:30:15;;;;;;;0.60;0.60;;;15.50;42.20;;;;;;5085714;28;47101;-25
2021/12/10 05:32:42;;;;;;;0.40;0.40;;;15.50;42.30;;;;;;5085918;28;46962;-25
2021/12/10 05:35:09;;;;;;;0.40;0.40;;;15.50;42.20;;;;;;5085587;28;46942;-16
2021/12/10 05:37:36;;;;;;;1.40;0.60;;;15.50;42.10;;;;;;5085650;28;48014;-25
2021/12/10 05:40:04;;;;;;;0.85;0.60;;;15.50;42.10;;;;;;5085421;28;46888;-15
2021/12/10 05:42:31;;;;;;;0.45;0.43;;;15.50;41.90;;;;;;5085555;28;46909;-17
2021/12/10 05:44:58;;;;;;;0.40;0.40;;;15.50;42.00;;;;;;5085766;28;47175;-25
2021/12/10 05:47:26;;;;;;;0.75;0.52;;;15.50;42.00;;;;;;5085625;28;48858;-16
2021/12/10 05:49:52;;;;;;;1.23;0.52;;;15.50;41.80;;;;;;5085186;28;46799;-16
2021/12/10 05:52:19;;;;;;;0.45;0.45;;;15.50;41.90;;;;;;5085672;28;46951;-25
2021/12/10 05:54:46;;;;;;;0.77;0.50;;;15.50;42.00;;;;;;5085626;27;46985;-25
2021/12/10 05:57:13;;;;;;;0.60;0.47;;;15.50;41.80;;;;;;5085650;28;48878;-25
2021/12/10 05:59:40;;;;;;;0.50;0.50;;;15.50;41.80;;;;;;5085365;28;47606;-25
2021/12/10 06:02:06;;;;;;;0.70;0.52;;;15.40;41.70;;;;;;5085492;28;46988;-16
2021/12/10 06:04:35;;;;;;;1.05;0.43;;;15.40;41.70;;;;;;5085531;28;47117;-25
2021/12/10 06:07:01;;;;;;;0.50;0.50;;;15.40;41.60;;;;;;5085333;28;46944;-16
2021/12/10 06:09:28;;;;;;;1.55;0.60;;;15.40;41.60;;;;;;5085208;28;46896;-25
2021/12/10 06:11:55;;;;;;;0.40;0.40;;;15.40;41.50;;;;;;5085533;28;46866;-16
2021/12/10 06:14:21;;;;;;;0.40;0.40;;;15.40;41.50;;;;;;5089234;28;47257;-25
2021/12/10 06:16:48;;;;;;;0.50;0.50;;;15.40;41.50;;;;;;5088742;28;47297;-16
2021/12/10 06:19:15;;;;;;;0.50;0.50;;;15.40;41.30;;;;;;5088687;28;47446;-17
2021/12/10 06:21:43;;;;;;;0.50;0.50;;;15.40;41.40;;;;;;5088552;28;46934;-16
2021/12/10 06:24:10;;;;;;;0.40;0.40;;;15.40;41.30;;;;;;5089028;28;46830;-25
2021/12/10 06:26:36;;;;;;;0.65;0.50;;;15.40;41.50;;;;;;5088056;28;47036;-25
2021/12/10 06:29:03;;;;;;;0.55;0.50;;;15.40;41.50;;;;;;5088615;28;47142;-17
2021/12/10 06:31:30;;;;;;;0.63;0.40;;;15.40;41.30;;;;;;5087421;28;47138;-25
2021/12/10 06:33:57;;;;;;;0.52;0.52;;;15.40;41.40;;;;;;5088852;28;46959;-25
2021/12/10 06:36:25;;;;;;;1.15;0.55;;;15.40;41.20;;;;;;5088362;28;47056;-25
2021/12/10 06:39:24;;;;;;;0.38;0.38;;;15.40;41.30;;;;;;5088360;27;46988;-26
2021/12/10 06:41:56;;;;;;;0.38;0.38;;;15.40;41.10;;;;;;5088415;28;46943;-26
2021/12/10 06:44:24;;;;;;;0.85;0.50;;;15.40;41.30;;;;;;5096710;27;47164;-26
2021/12/10 06:46:52;;;;;;;0.65;0.50;;;15.40;41.10;;;;;;5108824;27;48247;-26
2021/12/10 06:49:19;;;;;;;0.40;0.40;;;15.40;41.20;;;;;;5108027;27;46866;-25
2021/12/10 06:51:46;;;;;;;0.57;0.57;;;15.40;41.50;;;;;;5108633;27;46893;-25
2021/12/10 06:54:12;;;;;;;0.77;0.60;;;15.40;41.40;;;;;;5103467;27;46987;-26
2021/12/10 06:56:40;;;;;;;0.50;0.50;;;15.40;41.50;;;;;;5087785;27;48959;-26
2021/12/10 06:59:08;;;;;;;0.60;0.60;;;15.40;41.60;;;;;;5088061;27;46927;-26
2021/12/10 07:01:36;;;;;;;0.75;0.70;;;15.40;41.60;;;;;;5088272;27;47104;-16
2021/12/10 07:04:04;;;;;;;1.38;0.60;;;15.50;41.60;;;;;;5088283;27;46891;-16
2021/12/10 07:06:31;;;;;;;1.25;0.80;;;15.50;41.50;;;;;;5087792;27;48095;-15
2021/12/10 07:08:59;;;;;;;0.85;0.80;;;15.50;41.60;;;;;;5087918;27;47244;-17
2021/12/10 07:11:26;;;;;;;0.88;0.75;;;15.50;41.70;;;;;;5087393;27;46943;-16
2021/12/10 07:14:01;;;;;;;2.95;0.90;;;15.50;41.70;;;;;;5088730;27;46830;-25
2021/12/10 07:16:28;;;;;;;0.93;0.82;;;15.50;41.70;;;;;;5087223;27;47856;-26
2021/12/10 07:18:55;;;;;;;1.30;1.10;;;15.50;41.80;;;;;;5087440;27;46940;-25
2021/12/10 07:21:22;;;;;;;1.00;0.90;;;15.50;41.80;;;;;;5087804;27;46823;-25
2021/12/10 07:23:49;;;;;;;1.20;1.10;;;15.50;41.90;;;;;;5087475;27;46846;-25
2021/12/10 07:26:16;;;;;;;1.30;1.20;;;15.50;41.90;;;;;;5085871;27;47336;-26
2021/12/10 07:28:42;;;;;;;1.70;1.10;;;15.50;42.00;;;;;;5087404;27;47042;-25
2021/12/10 07:31:10;;;;;;;1.20;1.10;;;15.50;42.10;;;;;;5086310;27;46832;-25
2021/12/10 07:33:37;;;;;;;1.13;1.02;;;15.50;42.10;;;;;;5093807;27;46970;-25
2021/12/10 07:36:05;;;;;;;2.83;1.33;;;15.50;42.00;;;;;;5107826;27;48253;-25
2021/12/10 07:38:31;;;;;;;1.45;1.30;;;15.50;42.10;;;;;;5107858;27;47167;-25
2021/12/10 07:40:58;;;;;;;1.30;1.20;;;15.50;42.10;;;;;;5107661;27;46817;-25
2021/12/10 07:43:25;;;;;;;2.05;1.42;;;15.50;42.20;;;;;;5108229;27;47193;-26
2021/12/10 07:45:52;;;;;;;1.80;1.27;;;15.50;42.20;;;;;;5106992;27;47728;-26
2021/12/10 07:48:21;;;;;;;2.10;1.40;;;15.50;42.30;;;;;;5106880;27;47254;-25
2021/12/10 07:50:53;;;;;;;1.45;1.35;;;15.50;42.30;;;;;;5106984;27;46815;-25
2021/12/10 07:53:20;;;;;;;1.73;1.20;;;15.50;42.40;;;;;;5108215;27;46948;-25
2021/12/10 07:55:47;;;;;;;1.50;1.40;;;15.50;42.20;;;;;;5105985;27;47634;-25
2021/12/10 07:58:14;;;;;;;2.17;1.30;;;15.50;42.40;;;;;;5105835;27;46901;-25
2021/12/10 08:00:41;;;;;;;1.48;1.38;;;15.50;42.50;;;;;;5104983;27;46974;-25
2021/12/10 08:03:08;;;;;;;1.40;1.27;;;15.50;42.50;;;;;;5107363;27;47296;-27
2021/12/10 08:05:37;;;;;;;1.50;1.25;;;15.50;42.50;;;;;;5107555;27;48027;-16
2021/12/10 08:08:05;;;;;;;1.65;1.30;;;15.50;43.00;;;;;;5107278;27;46753;-16
2021/12/10 08:10:32;;;;;;;1.55;1.15;;;15.50;42.50;;;;;;5107713;27;46983;-15
2021/12/10 08:12:59;;;;;;;1.52;1.25;;;15.50;42.50;;;;;;5107692;27;46959;-15
2021/12/10 08:15:25;;;;;;;1.33;1.08;;;15.50;42.60;;;;;;5107210;27;49040;-16
2021/12/10 08:17:52;;;;;;;1.58;1.30;;;15.50;42.60;;;;;;5107297;27;47098;-16
2021/12/10 08:20:20;;;;;;;2.30;1.20;;;15.50;42.60;;;;;;5107308;27;46810;-24
2021/12/10 08:22:49;;;;;;;1.15;1.10;;;15.50;42.70;;;;;;5107381;27;46921;-16
2021/12/10 08:25:15;;;;;;;1.40;1.20;;;15.50;42.70;;;;;;5106808;27;47940;-25
2021/12/10 08:27:42;;;;;;;1.88;1.50;;;15.50;42.80;;;;;;5107218;27;47178;-16
2021/12/10 08:30:10;;;;;;;1.50;1.40;;;15.40;42.70;;;;;;5107125;27;46742;-25
2021/12/10 08:32:38;;;;;;;2.25;1.35;;;15.50;42.80;;;;;;5107494;27;47087;-25
2021/12/10 08:35:06;;;;;;;1.73;1.20;;;15.50;42.80;;;;;;5105814;27;47950;-25
2021/12/10 08:37:33;;;;;;;2.33;1.33;;;15.40;42.80;;;;;;5107259;27;47264;-25
2021/12/10 08:40:01;;;;;;;1.48;1.20;;;15.50;42.80;;;;;;5107084;27;47068;-15
2021/12/10 08:42:28;;;;;;;1.75;1.60;;;15.40;42.80;;;;;;5106621;27;47168;-16
2021/12/10 08:44:54;;;;;;;1.80;1.27;;;15.40;42.90;;;;;;5086332;28;47793;-16
2021/12/10 08:47:21;;;;;;;2.78;1.20;;;15.50;42.90;;;;;;5086595;28;46802;-25
2021/12/10 08:49:48;;;;;;;1.70;1.20;;;15.50;42.90;;;;;;5086349;28;46876;-24
2021/12/10 08:52:16;;;;;;;1.85;1.38;;;15.50;43.00;;;;;;5086517;28;47048;-24
2021/12/10 08:54:43;;;;;;;1.70;1.30;;;15.40;42.90;;;;;;5086175;27;47071;-25
2021/12/10 08:57:12;;;;;;;1.58;1.35;;;15.50;43.00;;;;;;5087319;27;46982;-16
2021/12/10 08:59:39;;;;;;;2.00;1.20;;;15.40;42.90;;;;;;5091310;27;47014;-26
2021/12/10 09:02:07;;;;;;;2.53;1.30;;;15.40;43.10;;;;;;5096999;27;46922;-15
2021/12/10 09:04:33;;;;;;;3.03;1.30;;;15.40;43.20;;;;;;5106286;27;46874;-16
2021/12/10 09:07:06;;;;;;;2.00;1.35;;;15.40;43.20;;;;;;5105779;27;46806;-17
2021/12/10 09:09:33;;;;;;;2.13;1.00;;;15.40;43.20;;;;;;5106671;27;46852;-16
2021/12/10 09:12:01;;;;;;;1.63;1.10;;;15.50;43.20;;;;;;5104433;27;46983;-16
2021/12/10 09:14:36;;;;;;;2.20;1.50;;;15.70;42.90;;;;;;5106508;27;48033;-15
2021/12/10 09:17:03;;;;;;;3.30;1.45;;;15.90;42.50;;;;;;5091936;27;46916;-16
2021/12/10 09:19:30;;;;;;;1.23;1.08;;;16.20;42.00;;;;;;5085575;27;47036;-16
2021/12/10 09:21:57;;;;;;;3.25;1.17;;;16.50;41.60;;;;;;5085534;27;46949;-24
2021/12/10 09:24:24;;;;;;;2.20;1.02;;;16.70;41.30;;;;;;5086804;27;49149;-17
2021/12/10 09:26:55;;;;;;;1.80;1.20;;;16.90;40.90;;;;;;5085261;27;47326;-16
2021/12/10 09:29:22;;;;;;;1.40;1.00;;;17.10;40.60;;;;;;5087359;27;46929;-17
2021/12/10 09:31:50;;;;;;;2.92;1.10;;;17.20;40.30;;;;;;5086395;27;47030;-15
2021/12/10 09:34:17;;;;;;;2.67;1.25;;;17.30;40.10;;;;;;5086111;27;48136;-16
2021/12/10 09:36:44;;;;;;;2.63;0.98;;;17.40;39.90;;;;;;5085487;27;46822;-16
2021/12/10 09:39:11;;;;;;;1.83;1.10;;;17.40;39.80;;;;;;5085553;28;47201;-16
2021/12/10 09:41:39;;;;;;;3.58;1.35;;;17.50;39.70;;;;;;5093664;27;47214;-17
2021/12/10 09:44:07;;;;;;;2.00;1.45;;;17.60;39.70;;;;;;5093052;27;48872;-17
2021/12/10 09:46:34;;;;;;;1.17;1.00;;;17.60;39.70;;;;;;5098439;27;46834;-16
2021/12/10 09:49:02;;;;;;;0.85;0.80;;;17.60;39.70;;;;;;5085142;28;47120;-25
2021/12/10 09:51:31;;;;;;;1.70;1.30;;;17.60;39.70;;;;;;5091815;27;47213;-26
2021/12/10 09:54:00;;;;;;;2.88;1.30;;;17.70;39.70;;;;;;5087815;27;48234;-25
2021/12/10 09:56:28;;;;;;;2.08;1.00;;;17.70;39.80;;;;;;5083613;28;46962;-25
2021/12/10 09:58:56;;;;;;;1.63;1.10;;;17.60;39.70;;;;;;5085086;28;46856;-25
2021/12/10 10:01:23;;;;;;;1.55;1.00;;;17.60;39.80;;;;;;5085430;27;47138;-25
2021/12/10 10:03:52;;;;;;;2.28;1.10;;;17.60;39.80;;;;;;5085322;28;48113;-16
2021/12/10 10:06:20;;;;;;;1.08;0.90;;;17.60;39.80;;;;;;5085922;28;47277;-16
2021/12/10 10:08:47;;;;;;;2.15;1.00;;;17.60;39.90;;;;;;5085930;28;46724;-24
2021/12/10 10:11:17;;;;;;;1.70;0.95;;;17.60;40.00;;;;;;5084755;28;46874;-26
2021/12/10 10:13:45;;;;;;;1.60;1.20;;;17.50;39.90;;;;;;5084879;27;47886;-17
2021/12/10 10:16:12;;;;;;;1.38;1.20;;;17.50;40.10;;;;;;5083966;28;46916;-16
2021/12/10 10:18:40;;;;;;;2.47;1.30;;;17.50;39.90;;;;;;5083852;28;46927;-16
2021/12/10 10:21:10;;;;;;;1.42;1.20;;;17.50;40.20;;;;;;5084828;28;47204;-24
2021/12/10 10:23:41;;;;;;;4.82;1.30;;;17.50;40.30;;;;;;5084954;28;49452;-25
2021/12/10 10:26:09;;;;;;;1.15;0.90;;;17.50;40.30;;;;;;5085010;28;47058;-25
2021/12/10 10:28:36;;;;;;;1.88;1.25;;;17.40;40.40;;;;;;5085160;28;46783;-25
2021/12/10 10:31:08;;;;;;;2.05;1.27;;;17.40;40.50;;;;;;5084977;28;46822;-26
2021/12/10 10:33:35;;;;;;;1.38;1.05;;;17.40;40.50;;;;;;5085026;28;48848;-25
2021/12/10 10:36:05;;;;;;;1.98;1.25;;;17.40;40.60;;;;;;5084823;28;46833;-25
2021/12/10 10:38:32;;;;;;;2.47;1.52;;;17.40;40.70;;;;;;5084142;27;47024;-25
2021/12/10 10:41:02;;;;;;;2.35;1.30;;;17.30;40.80;;;;;;5083697;28;47152;-25
2021/12/10 10:43:29;;;;;;;1.80;1.38;;;17.30;40.80;;;;;;5083379;28;49038;-25
2021/12/10 10:45:56;;;;;;;1.52;1.25;;;17.30;40.90;;;;;;5083635;28;47076;-25
2021/12/10 10:48:22;;;;;;;3.08;1.13;;;17.30;41.00;;;;;;5084203;28;47035;-25
2021/12/10 10:50:52;;;;;;;2.10;1.33;;;17.20;41.00;;;;;;5083637;27;46993;-25
2021/12/10 10:53:21;;;;;;;3.08;1.20;;;17.20;41.10;;;;;;5084328;27;49053;-25
2021/12/10 10:55:53;;;;;;;1.67;1.17;;;17.20;41.10;;;;;;5084330;27;47022;-25
2021/12/10 10:58:23;;;;;;;2.55;1.40;;;17.20;41.20;;;;;;5086472;27;46867;-26
2021/12/10 11:00:59;;;;;;;1.30;1.20;;;17.20;41.30;;;;;;5088339;27;47215;-25
2021/12/10 11:03:35;;;;;;;2.22;1.15;;;17.10;41.30;;;;;;5088218;27;49154;-26
2021/12/10 11:06:02;;;;;;;1.52;1.40;;;17.10;41.40;;;;;;5088153;27;46875;-26
2021/12/10 11:08:29;;;;;;;2.90;1.30;;;17.10;41.40;;;;;;5088385;27;46847;-16
2021/12/10 11:10:58;;;;;;;3.17;1.70;;;17.10;41.50;;;;;;5088269;27;47312;-25
2021/12/10 11:13:27;;;;;;;1.52;1.42;;;17.00;41.50;;;;;;5086325;27;47123;-25
2021/12/10 11:15:59;;;;;;;1.88;1.30;;;17.00;41.60;;;;;;5087485;27;46884;-17
2021/12/10 11:18:26;;;;;;;2.25;1.02;;;17.00;41.60;;;;;;5087919;27;46905;-25
2021/12/10 11:20:53;;;;;;;1.95;1.25;;;17.00;41.70;;;;;;5087450;27;46916;-26
2021/12/10 11:23:23;;;;;;;1.30;1.20;;;17.00;41.80;;;;;;5085933;27;48180;-25
2021/12/10 11:25:50;;;;;;;1.77;1.40;;;16.90;41.80;;;;;;5085773;27;47030;-25
2021/12/10 11:28:25;;;;;;;1.65;1.33;;;16.90;41.90;;;;;;5086120;27;46917;-17
2021/12/10 11:30:56;;;;;;;1.45;1.33;;;16.90;42.00;;;;;;5085968;27;46946;-16
2021/12/10 11:33:24;;;;;;;2.03;1.30;;;16.90;42.10;;;;;;5085873;27;49158;-16
2021/12/10 11:35:52;;;;;;;2.25;1.42;;;16.80;42.10;;;;;;5085839;27;47255;-16
2021/12/10 11:38:20;;;;;;;1.90;1.55;;;16.80;42.10;;;;;;5086973;27;46908;-17
2021/12/10 11:40:50;;;;;;;1.48;1.38;;;16.80;42.20;;;;;;5087773;27;46948;-16
2021/12/10 11:43:52;;;;;;;1.73;1.33;;;16.80;42.20;;;;;;5087269;27;49340;-16
2021/12/10 11:46:32;;;;;;;3.15;1.10;;;16.70;42.30;;;;;;5087228;27;46949;-25
2021/12/10 11:49:05;;;;;;;1.40;1.20;;;16.70;42.50;;;;;;5087340;27;46789;-25
2021/12/10 11:51:34;;;;;;;1.30;1.20;;;16.70;42.60;;;;;;5104630;27;47266;-26
2021/12/10 11:54:01;;;;;;;1.40;1.27;;;16.60;43.30;;;;;;5107822;27;48866;-25
2021/12/10 11:56:29;;;;;;;1.10;1.10;;;16.60;42.80;;;;;;5107530;27;47046;-24
2021/12/10 11:59:04;;;;;;;2.25;1.20;;;16.60;42.90;;;;;;5107402;27;46981;-25
2021/12/10 12:01:33;;;;;;;1.30;1.10;;;16.50;42.90;;;;;;5107626;27;47001;-25
2021/12/10 12:04:14;;;;;;;1.95;1.33;;;16.50;43.10;;;;;;5107633;27;48659;-17
2021/12/10 12:06:41;;;;;;;1.30;1.20;;;16.50;42.70;;;;;;5105912;27;47122;-17
2021/12/10 12:09:07;;;;;;;1.27;1.17;;;16.50;43.10;;;;;;5107196;27;46815;-17
2021/12/10 12:11:34;;;;;;;1.30;1.20;;;16.50;43.10;;;;;;5107073;27;46821;-16
2021/12/10 12:14:02;;;;;;;1.00;1.00;;;16.50;43.20;;;;;;5107626;27;48803;-17
2021/12/10 12:16:28;;;;;;;1.98;1.42;;;16.50;43.20;;;;;;5106866;27;47250;-25
2021/12/10 12:18:59;;;;;;;4.18;1.38;;;16.50;43.30;;;;;;5107457;27;46954;-25
2021/12/10 12:27:18;;;;;;;1.90;1.30;;;16.40;43.60;;;;;;5104491;27;46924;-16
2021/12/10 12:29:46;;;;;;;1.05;1.05;;;16.40;43.60;;;;;;5107089;27;46884;-16
2021/12/10 12:32:16;;;;;;;1.25;1.15;;;16.40;43.60;;;;;;5107674;27;46888;-17
2021/12/10 12:34:44;;;;;;;1.95;1.00;;;16.40;43.70;;;;;;5106865;27;47954;-16
2021/12/10 12:37:12;;;;;;;2.28;1.23;;;16.40;43.70;;;;;;5107215;27;47420;-25
2021/12/10 12:39:41;;;;;;;1.20;1.10;;;16.40;43.80;;;;;;5107164;27;46750;-25
2021/12/10 12:42:17;;;;;;;1.17;1.08;;;16.40;43.80;;;;;;5107289;27;47186;-25
2021/12/10 12:44:44;;;;;;;2.67;1.15;;;16.40;43.80;;;;;;5106702;27;47924;-25
2021/12/10 12:47:13;;;;;;;1.30;1.10;;;16.40;43.70;;;;;;5106801;27;47457;-25
2021/12/10 12:50:03;;;;;;;3.97;1.00;;;16.40;43.70;;;;;;5106996;27;46863;-25
2021/12/10 12:52:34;;;;;;;1.10;1.02;;;16.40;43.70;;;;;;5107332;27;47019;-16
2021/12/10 12:55:30;;;;;;;1.25;1.00;;;16.40;43.60;;;;;;5106178;27;47958;-15
2021/12/10 12:57:59;;;;;;;1.70;0.98;;;16.40;43.70;;;;;;5106891;27;46975;-16
2021/12/10 13:00:27;;;;;;;3.88;1.17;;;16.40;43.70;;;;;;5106368;27;46880;-26
2021/12/10 13:02:56;;;;;;;6.57;0.98;;;16.40;43.80;;;;;;5106861;27;47085;-25
2021/12/10 13:05:33;;;;;;;1.10;0.95;;;16.40;43.80;;;;;;5106330;27;48735;-25
2021/12/10 13:08:07;;;;;;;2.05;1.20;;;16.40;43.80;;;;;;5106984;27;46968;-25